createdAt,value
2019-02-18T00:01:01.858Z,22.53
2019-02-18T00:03:33.650Z,21.57
2019-02-18T00:06:05.283Z,21.43
2019-02-18T00:08:36.726Z,24.83
2019-02-18T00:11:07.703Z,22.63
2019-02-18T00:13:40.203Z,22.80
2019-02-18T00:16:11.843Z,22.00
2019-02-18T00:18:43.319Z,20.17
2019-02-18T00:21:14.937Z,21.97
2019-02-18T00:23:47.697Z,19.27
2019-02-18T00:26:18.668Z,19.33
2019-02-18T00:28:50.080Z,19.93
2019-02-18T00:31:21.546Z,21.03
2019-02-18T00:33:52.846Z,20.23
2019-02-18T00:36:24.355Z,18.63
2019-02-18T00:38:56.053Z,19.87
2019-02-18T00:41:27.813Z,20.33
2019-02-18T00:43:59.425Z,20.03
2019-02-18T00:46:33.241Z,20.07
2019-02-18T00:49:05.129Z,20.90
2019-02-18T00:51:36.709Z,20.47
2019-02-18T00:54:08.244Z,21.03
2019-02-18T00:56:39.801Z,19.30
2019-02-18T00:59:11.221Z,19.77
2019-02-18T01:01:42.933Z,18.30
2019-02-18T01:04:14.035Z,19.43
2019-02-18T01:06:45.768Z,20.93
2019-02-18T01:09:17.811Z,19.57
2019-02-18T01:11:49.315Z,20.63
2019-02-18T01:14:21.083Z,19.27
2019-02-18T01:16:52.367Z,20.00
2019-02-18T01:19:23.078Z,18.47
2019-02-18T01:21:54.659Z,19.70
2019-02-18T01:24:25.872Z,19.70
2019-02-18T01:26:58.733Z,19.30
2019-02-18T01:29:30.337Z,21.03
2019-02-18T01:32:02.084Z,20.30
2019-02-18T01:34:33.516Z,20.40
2019-02-18T01:37:05.030Z,21.70
2019-02-18T01:39:36.526Z,20.20
2019-02-18T01:42:07.916Z,21.40
2019-02-18T01:44:38.889Z,20.63
2019-02-18T01:47:10.443Z,20.53
2019-02-18T01:49:41.727Z,19.70
2019-02-18T01:52:13.185Z,20.13
2019-02-18T01:54:45.442Z,20.23
2019-02-18T01:57:16.892Z,19.43
2019-02-18T01:59:48.259Z,19.23
2019-02-18T02:02:19.523Z,19.00
2019-02-18T02:04:51.137Z,18.70
2019-02-18T02:07:22.886Z,18.50
2019-02-18T02:09:53.599Z,18.10
2019-02-18T02:12:25.169Z,17.87
2019-02-18T02:14:56.203Z,18.27
2019-02-18T02:17:28.619Z,18.47
2019-02-18T02:20:00.313Z,17.83
2019-02-18T02:22:31.469Z,19.13
2019-02-18T02:25:02.669Z,18.10
2019-02-18T02:27:34.010Z,16.50
2019-02-18T02:30:06.273Z,18.47
2019-02-18T02:32:37.599Z,19.13
2019-02-18T02:35:08.774Z,17.30
2019-02-18T02:37:39.723Z,17.70
2019-02-18T02:40:11.651Z,17.97
2019-02-18T02:42:43.111Z,17.73
2019-02-18T02:45:14.375Z,17.13
2019-02-18T02:47:45.876Z,15.90
2019-02-18T02:50:17.220Z,17.37
2019-02-18T02:52:48.999Z,17.13
2019-02-18T02:55:20.426Z,17.07
2019-02-18T02:57:51.869Z,17.70
2019-02-18T03:00:23.224Z,16.40
2019-02-18T03:02:55.077Z,17.93
2019-02-18T03:05:26.294Z,16.63
2019-02-18T03:07:56.988Z,16.57
2019-02-18T03:10:28.600Z,16.47
2019-02-18T03:12:59.817Z,15.63
2019-02-18T03:15:31.434Z,16.50
2019-02-18T03:18:03.051Z,19.97
2019-02-18T03:20:34.308Z,20.70
2019-02-18T03:23:05.693Z,22.57
2019-02-18T03:25:36.637Z,21.17
2019-02-18T03:28:23.613Z,20.23
2019-02-18T03:30:59.238Z,19.67
2019-02-18T03:33:38.157Z,17.83
2019-02-18T03:36:09.510Z,17.87
2019-02-18T03:38:40.692Z,15.57
2019-02-18T03:41:12.276Z,17.87
2019-02-18T03:43:43.910Z,17.20
2019-02-18T03:46:15.321Z,17.30
2019-02-18T03:48:47.124Z,16.57
2019-02-18T03:51:18.128Z,17.10
2019-02-18T03:53:49.457Z,17.40
2019-02-18T03:56:21.000Z,17.53
2019-02-18T03:58:52.505Z,17.30
2019-02-18T04:01:24.065Z,17.67
2019-02-18T04:03:55.648Z,17.97
2019-02-18T04:06:26.932Z,17.57
2019-02-18T04:08:58.593Z,17.63
2019-02-18T04:11:29.578Z,18.17
2019-02-18T04:14:01.488Z,19.17
2019-02-18T04:16:32.047Z,18.53
2019-02-18T04:19:03.555Z,18.10
2019-02-18T04:21:34.533Z,17.93
2019-02-18T04:24:05.480Z,17.80
2019-02-18T04:26:37.025Z,16.90
2019-02-18T04:29:08.576Z,16.43
2019-02-18T04:31:40.139Z,16.93
2019-02-18T04:34:11.841Z,15.27
2019-02-18T04:36:43.227Z,16.17
2019-02-18T04:39:14.480Z,15.77
2019-02-18T04:41:46.176Z,15.20
2019-02-18T04:44:17.258Z,15.77
2019-02-18T04:46:48.390Z,15.20
2019-02-18T04:49:19.840Z,15.53
2019-02-18T04:51:51.289Z,15.93
2019-02-18T04:54:22.929Z,16.63
2019-02-18T04:56:54.358Z,16.37
2019-02-18T04:59:25.781Z,15.87
2019-02-18T05:01:57.113Z,15.83
2019-02-18T05:04:28.549Z,15.43
2019-02-18T05:06:59.934Z,15.93
2019-02-18T05:09:30.763Z,16.70
2019-02-18T05:12:02.839Z,16.47
2019-02-18T05:14:33.677Z,17.93
2019-02-18T05:17:05.181Z,16.53
2019-02-18T05:19:36.350Z,17.77
2019-02-18T05:22:07.561Z,17.57
2019-02-18T05:24:38.316Z,17.00
2019-02-18T05:27:09.555Z,17.40
2019-02-18T05:29:40.896Z,17.97
2019-02-18T05:32:12.520Z,17.07
2019-02-18T05:34:43.035Z,15.90
2019-02-18T05:37:13.969Z,16.40
2019-02-18T05:39:44.815Z,16.10
2019-02-18T05:42:15.675Z,18.63
2019-02-18T05:44:46.668Z,19.80
2019-02-18T05:47:17.379Z,18.83
2019-02-18T05:49:48.328Z,18.23
2019-02-18T05:52:19.216Z,18.60
2019-02-18T05:54:50.796Z,18.60
2019-02-18T05:57:22.925Z,17.37
2019-02-18T05:59:54.237Z,18.00
2019-02-18T06:02:25.223Z,18.37
2019-02-18T06:04:55.894Z,18.63
2019-02-18T06:07:26.888Z,19.17
2019-02-18T06:09:57.724Z,19.60
2019-02-18T06:12:28.503Z,18.17
2019-02-18T06:14:59.222Z,18.63
2019-02-18T06:17:30.227Z,20.03
2019-02-18T06:20:01.258Z,18.67
2019-02-18T06:22:31.975Z,19.80
2019-02-18T06:25:03.167Z,17.63
2019-02-18T06:27:34.264Z,17.47
2019-02-18T06:30:05.494Z,18.37
2019-02-18T06:32:36.133Z,20.83
2019-02-18T06:35:07.233Z,21.57
2019-02-18T06:37:38.241Z,21.53
2019-02-18T06:40:09.390Z,19.80
2019-02-18T06:42:40.414Z,20.23
2019-02-18T06:45:36.748Z,20.33
2019-02-18T06:48:42.332Z,19.10
2019-02-18T06:51:13.429Z,19.87
2019-02-18T06:53:44.332Z,20.30
2019-02-18T06:56:17.004Z,21.90
2019-02-18T06:58:53.679Z,22.83
2019-02-18T07:01:53.170Z,20.63
2019-02-18T07:04:45.588Z,24.50
2019-02-18T07:07:35.656Z,21.93
2019-02-18T07:10:28.800Z,22.93
2019-02-18T07:13:00.600Z,20.90
2019-02-18T07:15:31.893Z,20.00
2019-02-18T07:18:02.826Z,21.90
2019-02-18T07:20:33.371Z,23.60
2019-02-18T07:23:03.903Z,20.17
2019-02-18T07:25:34.589Z,24.83
2019-02-18T07:28:05.474Z,22.10
2019-02-18T07:30:36.842Z,21.73
2019-02-18T07:33:07.484Z,22.13
2019-02-18T07:35:38.287Z,20.07
2019-02-18T07:38:09.090Z,20.10
2019-02-18T07:40:39.645Z,21.60
2019-02-18T07:43:10.345Z,18.23
2019-02-18T07:45:41.124Z,19.70
2019-02-18T07:48:11.980Z,18.73
2019-02-18T07:50:43.119Z,20.13
2019-02-18T07:53:13.779Z,19.07
2019-02-18T07:55:44.395Z,18.50
2019-02-18T07:58:15.133Z,19.27
2019-02-18T08:00:47.488Z,17.60
2019-02-18T08:03:18.340Z,18.53
2019-02-18T08:05:49.463Z,18.73
2019-02-18T08:08:20.161Z,18.63
2019-02-18T08:10:51.338Z,17.97
2019-02-18T08:13:21.857Z,18.67
2019-02-18T08:15:52.843Z,19.07
2019-02-18T08:18:23.436Z,18.10
2019-02-18T08:20:53.939Z,18.67
2019-02-18T08:23:24.472Z,17.07
2019-02-18T08:25:55.290Z,16.40
2019-02-18T08:28:27.015Z,15.23
2019-02-18T08:30:58.808Z,17.17
2019-02-18T08:33:33.229Z,17.43
2019-02-18T08:36:05.654Z,17.10
2019-02-18T08:38:38.170Z,17.27
2019-02-18T08:41:10.186Z,16.57
2019-02-18T08:43:41.554Z,17.43
2019-02-18T08:46:12.980Z,17.43
2019-02-18T08:48:46.717Z,15.53
2019-02-18T08:51:19.097Z,17.10
2019-02-18T08:53:50.473Z,15.77
2019-02-18T08:56:21.860Z,15.97
2019-02-18T08:58:53.618Z,17.57
2019-02-18T09:01:24.723Z,17.43
2019-02-18T09:03:55.988Z,15.73
2019-02-18T09:06:27.428Z,16.90
2019-02-18T09:08:59.563Z,17.30
2019-02-18T09:11:30.899Z,16.30
2019-02-18T09:14:01.713Z,16.17
2019-02-18T09:16:32.660Z,16.03
2019-02-18T09:19:04.282Z,16.03
2019-02-18T09:21:36.798Z,17.30
2019-02-18T09:24:36.520Z,17.63
2019-02-18T09:27:08.372Z,16.23
2019-02-18T09:29:39.582Z,18.10
2019-02-18T09:32:10.536Z,17.23
2019-02-18T09:34:41.260Z,17.67
2019-02-18T09:37:12.475Z,18.53
2019-02-18T09:39:43.020Z,17.50
2019-02-18T09:42:13.986Z,19.33
2019-02-18T09:44:45.819Z,17.27
2019-02-18T09:47:16.916Z,17.77
2019-02-18T09:49:47.821Z,18.23
2019-02-18T09:52:18.568Z,19.53
2019-02-18T09:54:49.236Z,18.67
2019-02-18T09:57:20.549Z,21.80
2019-02-18T09:59:51.226Z,22.70
2019-02-18T10:02:21.811Z,21.43
2019-02-18T10:04:52.958Z,22.23
2019-02-18T10:07:23.863Z,22.67
2019-02-18T10:09:55.288Z,22.57
2019-02-18T10:12:26.848Z,22.73
2019-02-18T10:14:57.606Z,21.80
2019-02-18T10:17:28.770Z,21.93
2019-02-18T10:19:59.317Z,21.13
2019-02-18T10:22:30.911Z,21.30
2019-02-18T10:25:01.499Z,22.60
2019-02-18T10:27:51.052Z,22.17
2019-02-18T10:30:21.733Z,20.50
2019-02-18T10:32:52.746Z,21.43
2019-02-18T10:35:23.724Z,20.87
2019-02-18T10:37:55.135Z,21.53
2019-02-18T10:40:26.272Z,20.40
2019-02-18T10:42:56.955Z,20.13
2019-02-18T10:45:28.343Z,21.40
2019-02-18T10:47:59.015Z,20.77
2019-02-18T10:50:29.754Z,20.60
2019-02-18T10:53:00.771Z,20.73
2019-02-18T10:55:31.913Z,20.83
2019-02-18T10:58:03.348Z,18.87
2019-02-18T11:00:34.364Z,19.43
2019-02-18T11:03:05.597Z,19.93
2019-02-18T11:05:36.445Z,19.50
2019-02-18T11:08:07.085Z,19.20
2019-02-18T11:10:37.843Z,18.20
2019-02-18T11:13:08.710Z,18.13
2019-02-18T11:15:39.508Z,18.57
2019-02-18T11:18:10.306Z,18.33
2019-02-18T11:20:40.905Z,17.60
2019-02-18T11:23:11.587Z,17.77
2019-02-18T11:25:42.188Z,16.27
2019-02-18T11:28:12.912Z,14.23
2019-02-18T11:30:43.636Z,15.93
2019-02-18T11:33:14.239Z,17.23
2019-02-18T11:35:44.958Z,16.87
2019-02-18T11:38:15.751Z,16.40
2019-02-18T11:40:46.335Z,16.87
2019-02-18T11:43:17.118Z,17.53
2019-02-18T11:45:47.785Z,17.17
2019-02-18T11:48:18.599Z,17.23
2019-02-18T11:50:49.331Z,17.13
2019-02-18T11:53:19.868Z,14.20
2019-02-18T11:55:50.645Z,16.30
2019-02-18T11:58:22.864Z,40.53
2019-02-18T12:00:53.542Z,15.77
2019-02-18T12:03:24.855Z,15.87
2019-02-18T12:05:55.591Z,14.53
2019-02-18T12:08:26.222Z,14.00
2019-02-18T12:10:56.955Z,15.90
2019-02-18T12:13:27.617Z,14.90
2019-02-18T12:15:59.717Z,13.57
2019-02-18T12:18:31.217Z,12.93
2019-02-18T12:21:02.570Z,13.10
2019-02-18T12:23:33.337Z,12.87
2019-02-18T12:26:04.224Z,13.83
2019-02-18T12:28:34.951Z,14.30
2019-02-18T12:31:05.941Z,15.13
2019-02-18T12:33:36.544Z,14.00
2019-02-18T12:36:07.398Z,15.43
2019-02-18T12:38:38.091Z,14.20
2019-02-18T12:41:08.676Z,12.50
2019-02-18T12:43:39.402Z,11.97
2019-02-18T12:46:15.689Z,12.27
2019-02-18T12:48:42.426Z,11.20
2019-02-18T12:51:13.096Z,11.67
2019-02-18T12:53:46.124Z,11.77
2019-02-18T12:56:16.136Z,12.10
2019-02-18T12:58:54.458Z,11.83
2019-02-18T13:01:19.543Z,13.43
2019-02-18T13:03:50.516Z,12.37
2019-02-18T13:06:21.214Z,11.50
2019-02-18T13:08:52.030Z,12.27
2019-02-18T13:11:22.812Z,10.27
2019-02-18T13:13:53.642Z,10.30
2019-02-18T13:16:24.481Z,10.77
2019-02-18T13:18:55.437Z,9.67
2019-02-18T13:21:26.110Z,9.30
2019-02-18T13:23:56.843Z,9.70
2019-02-18T13:26:27.662Z,8.70
2019-02-18T13:28:58.889Z,8.90
2019-02-18T13:31:32.147Z,8.33
2019-02-18T13:34:02.729Z,6.10
2019-02-18T13:36:33.645Z,8.70
2019-02-18T13:39:06.404Z,8.17
2019-02-18T13:41:37.249Z,8.63
2019-02-18T13:44:07.890Z,8.93
2019-02-18T13:46:38.965Z,9.93
2019-02-18T13:49:10.190Z,11.57
2019-02-18T13:51:40.907Z,11.83
2019-02-18T13:54:11.768Z,10.53
2019-02-18T13:56:43.300Z,9.03
2019-02-18T13:59:14.061Z,7.63
2019-02-18T14:01:45.178Z,7.93
2019-02-18T14:04:15.958Z,6.83
2019-02-18T14:06:58.542Z,6.60
2019-02-18T14:09:29.217Z,6.80
2019-02-18T14:12:00.184Z,8.03
2019-02-18T14:14:31.175Z,7.40
2019-02-18T14:17:02.086Z,7.67
2019-02-18T14:19:33.710Z,7.73
2019-02-18T14:22:05.538Z,7.43
2019-02-18T14:24:36.508Z,7.60
2019-02-18T14:27:07.232Z,7.37
2019-02-18T14:29:38.300Z,7.27
2019-02-18T14:32:09.791Z,8.57
2019-02-18T14:34:40.353Z,7.47
2019-02-18T14:37:11.202Z,7.30
2019-02-18T14:39:41.799Z,7.30
2019-02-18T14:42:12.397Z,8.07
2019-02-18T14:44:43.478Z,7.80
2019-02-18T14:47:14.352Z,6.60
2019-02-18T14:49:45.401Z,6.93
2019-02-18T14:52:16.800Z,7.23
2019-02-18T14:54:47.297Z,7.37
2019-02-18T14:57:18.027Z,7.57
2019-02-18T14:59:48.757Z,8.67
2019-02-18T15:02:19.757Z,9.40
2019-02-18T15:04:50.340Z,10.00
2019-02-18T15:07:21.020Z,9.50
2019-02-18T15:09:51.918Z,10.67
2019-02-18T15:12:23.304Z,11.40
2019-02-18T15:14:54.062Z,10.63
2019-02-18T15:17:24.849Z,10.77
2019-02-18T15:19:55.465Z,10.83
2019-02-18T15:22:27.949Z,11.37
2019-02-18T15:24:59.034Z,10.83
2019-02-18T15:27:29.727Z,10.80
2019-02-18T15:30:00.774Z,11.97
2019-02-18T15:32:31.695Z,11.53
2019-02-18T15:35:03.397Z,11.40
2019-02-18T15:37:34.638Z,11.20
2019-02-18T15:40:05.919Z,11.60
2019-02-18T15:42:42.394Z,12.20
2019-02-18T15:45:09.339Z,11.73
2019-02-18T15:47:40.220Z,12.20
2019-02-18T15:50:11.614Z,12.43
2019-02-18T15:52:42.767Z,12.87
2019-02-18T15:55:13.711Z,13.00
2019-02-18T15:57:44.804Z,13.10
2019-02-18T16:00:20.100Z,13.27
2019-02-18T16:02:50.980Z,13.33
2019-02-18T16:05:21.676Z,12.87
2019-02-18T16:07:52.424Z,12.60
2019-02-18T16:10:23.235Z,12.97
2019-02-18T16:12:53.920Z,13.73
2019-02-18T16:15:24.639Z,14.90
2019-02-18T16:17:55.510Z,15.97
2019-02-18T16:20:26.155Z,15.33
2019-02-18T16:22:56.756Z,15.33
2019-02-18T16:25:27.351Z,16.10
2019-02-18T16:27:59.103Z,15.53
2019-02-18T16:30:30.311Z,15.90
2019-02-18T16:33:01.665Z,19.20
2019-02-18T16:35:34.505Z,20.30
2019-02-18T16:38:05.736Z,19.70
2019-02-18T16:40:37.184Z,20.17
2019-02-18T16:43:26.927Z,21.83
2019-02-18T16:45:58.120Z,22.03
2019-02-18T16:48:29.536Z,24.47
2019-02-18T16:51:00.607Z,24.60
2019-02-18T16:53:31.528Z,24.07
2019-02-18T16:56:02.623Z,27.43
2019-02-18T16:58:33.525Z,26.87
2019-02-18T17:01:05.072Z,26.60
2019-02-18T17:03:36.438Z,27.30
2019-02-18T17:06:07.187Z,25.67
2019-02-18T17:08:37.885Z,25.37
2019-02-18T17:11:08.589Z,28.30
2019-02-18T17:13:39.476Z,31.63
2019-02-18T17:16:10.259Z,31.83
2019-02-18T17:18:41.159Z,33.97
2019-02-18T17:21:11.827Z,37.53
2019-02-18T17:23:42.368Z,36.20
2019-02-18T17:26:13.105Z,38.53
2019-02-18T17:28:43.826Z,40.33
2019-02-18T17:31:14.903Z,42.20
2019-02-18T17:33:45.435Z,30.50
2019-02-18T17:36:16.086Z,29.03
2019-02-18T17:38:46.659Z,28.83
2019-02-18T17:41:17.197Z,29.47
2019-02-18T17:43:47.858Z,30.17
2019-02-18T17:46:18.557Z,31.10
2019-02-18T17:48:49.200Z,30.63
2019-02-18T17:51:19.903Z,29.10
2019-02-18T17:53:50.502Z,27.37
2019-02-18T17:56:21.187Z,24.73
2019-02-18T17:58:52.732Z,26.07
2019-02-18T18:01:23.333Z,25.27
2019-02-18T18:03:53.953Z,25.03
2019-02-18T18:06:24.676Z,23.57
2019-02-18T18:08:55.299Z,21.70
2019-02-18T18:11:25.993Z,22.57
2019-02-18T18:13:56.652Z,20.17
2019-02-18T18:16:28.225Z,20.00
2019-02-18T18:18:59.020Z,20.23
2019-02-18T18:21:31.959Z,20.43
2019-02-18T18:24:02.500Z,19.80
2019-02-18T18:26:34.357Z,20.70
2019-02-18T18:29:05.104Z,19.93
2019-02-18T18:31:35.721Z,20.10
2019-02-18T18:34:06.342Z,19.57
2019-02-18T18:36:36.934Z,20.47
2019-02-18T18:39:07.791Z,19.63
2019-02-18T18:41:38.577Z,20.03
2019-02-18T18:44:09.361Z,19.53
2019-02-18T18:46:40.224Z,20.93
2019-02-18T18:49:11.161Z,19.80
2019-02-18T18:51:42.624Z,19.73
2019-02-18T18:54:13.276Z,19.50
2019-02-18T18:56:44.104Z,20.97
2019-02-18T18:59:14.895Z,18.83
2019-02-18T19:01:45.447Z,19.17
2019-02-18T19:04:16.362Z,18.97
2019-02-18T19:06:47.055Z,20.60
2019-02-18T19:09:17.657Z,19.70
2019-02-18T19:11:48.346Z,20.60
2019-02-18T19:14:19.007Z,20.20
2019-02-18T19:16:49.953Z,21.07
2019-02-18T19:19:22.017Z,21.50
2019-02-18T19:21:52.786Z,23.10
2019-02-18T19:24:23.581Z,21.93
2019-02-18T19:26:54.488Z,21.97
2019-02-18T19:29:25.496Z,21.87
2019-02-18T19:31:56.302Z,21.23
2019-02-18T19:34:27.095Z,22.17
2019-02-18T19:36:58.055Z,20.60
2019-02-18T19:39:28.611Z,24.57
2019-02-18T19:41:59.439Z,23.80
2019-02-18T19:44:30.083Z,26.10
2019-02-18T19:47:01.673Z,32.40
2019-02-18T19:49:32.683Z,28.90
2019-02-18T19:52:03.441Z,25.73
2019-02-18T19:54:35.767Z,32.50
2019-02-18T19:57:06.558Z,29.10
2019-02-18T19:59:37.151Z,37.60
2019-02-18T20:02:07.740Z,42.77
2019-02-18T20:04:38.607Z,36.97
2019-02-18T20:07:10.003Z,35.33
2019-02-18T20:09:42.385Z,34.57
2019-02-18T20:12:13.441Z,31.40
2019-02-18T20:14:44.491Z,33.40
2019-02-18T20:17:15.485Z,32.47
2019-02-18T20:19:47.125Z,31.10
2019-02-18T20:22:17.996Z,31.43
2019-02-18T20:24:48.888Z,32.50
2019-02-18T20:27:19.654Z,32.23
2019-02-18T20:29:50.343Z,30.63
2019-02-18T20:32:22.838Z,31.97
2019-02-18T20:34:53.884Z,32.73
2019-02-18T20:37:24.777Z,35.47
2019-02-18T20:39:55.677Z,38.87
2019-02-18T20:42:26.910Z,41.20
2019-02-18T20:44:58.346Z,41.90
2019-02-18T20:47:29.430Z,41.13
2019-02-18T20:50:00.417Z,37.90
2019-02-18T20:52:31.136Z,35.93
2019-02-18T20:55:02.207Z,36.67
2019-02-18T20:57:33.236Z,36.00
2019-02-18T21:00:06.128Z,35.97
2019-02-18T21:02:37.167Z,34.07
2019-02-18T21:05:07.909Z,31.80
2019-02-18T21:07:39.650Z,31.13
2019-02-18T21:10:11.849Z,30.60
2019-02-18T21:12:42.728Z,29.67
2019-02-18T21:15:14.795Z,29.93
2019-02-18T21:17:45.807Z,30.57
2019-02-18T21:20:16.793Z,30.87
2019-02-18T21:22:47.935Z,30.03
2019-02-18T21:25:20.098Z,30.63
2019-02-18T21:27:51.181Z,30.73
2019-02-18T21:30:22.314Z,32.80
2019-02-18T21:32:53.905Z,31.07
2019-02-18T21:35:25.529Z,30.77
2019-02-18T21:37:56.367Z,30.13
2019-02-18T21:40:27.023Z,31.30
2019-02-18T21:42:57.830Z,30.37
2019-02-18T21:45:28.783Z,32.03
2019-02-18T21:47:59.423Z,31.47
2019-02-18T21:50:31.663Z,31.97
2019-02-18T21:53:02.850Z,30.80
2019-02-18T21:55:33.778Z,29.87
2019-02-18T21:58:04.492Z,30.43
2019-02-18T22:00:36.360Z,29.80
2019-02-18T22:03:07.347Z,29.90
2019-02-18T22:05:38.963Z,30.50
2019-02-18T22:08:11.262Z,29.23
2019-02-18T22:10:42.827Z,27.90
2019-02-18T22:13:14.920Z,28.93
2019-02-18T22:15:46.339Z,27.37
2019-02-18T22:18:18.018Z,26.60
2019-02-18T22:20:49.148Z,28.10
2019-02-18T22:23:20.501Z,27.73
2019-02-18T22:25:51.972Z,27.87
2019-02-18T22:28:23.750Z,26.33
2019-02-18T22:30:54.946Z,26.63
2019-02-18T22:33:26.115Z,26.27
2019-02-18T22:35:58.651Z,25.47
2019-02-18T22:38:30.469Z,26.33
2019-02-18T22:41:03.880Z,26.63
2019-02-18T22:43:35.201Z,26.03
2019-02-18T22:46:06.331Z,26.07
2019-02-18T22:48:37.600Z,27.37
2019-02-18T22:51:09.369Z,27.67
2019-02-18T22:53:40.790Z,24.43
2019-02-18T22:56:12.456Z,24.40
2019-02-18T22:58:43.413Z,22.67
2019-02-18T23:01:15.432Z,21.93
2019-02-18T23:03:46.670Z,21.47
2019-02-18T23:06:17.881Z,21.90
2019-02-18T23:08:49.208Z,24.07
2019-02-18T23:11:20.977Z,23.87
2019-02-18T23:13:52.500Z,24.00
2019-02-18T23:16:23.657Z,23.50
2019-02-18T23:18:54.553Z,25.10
2019-02-18T23:21:26.632Z,23.80
2019-02-18T23:23:58.714Z,24.07
2019-02-18T23:26:29.768Z,23.23
2019-02-18T23:29:00.937Z,27.73
2019-02-18T23:31:32.256Z,25.17
2019-02-18T23:34:05.759Z,24.17
2019-02-18T23:36:36.965Z,22.80
2019-02-18T23:39:09.149Z,25.73
2019-02-18T23:41:40.529Z,24.53
2019-02-18T23:44:11.731Z,24.30
2019-02-18T23:46:42.863Z,23.33
2019-02-18T23:49:14.027Z,24.40
2019-02-18T23:51:44.858Z,25.43
2019-02-18T23:54:16.426Z,29.70
2019-02-18T23:56:47.402Z,35.20
2019-02-18T23:59:18.953Z,26.93
